Time;durP1;ratioP1;P1;durP2;ratioP2;P2;SDS_P1;SDS_P2;PMS_P1;PMS_P2;Temp;Humidity;BMP_temperature;BMP_pressure;BME280_temperature;BME280_humidity;BME280_pressure;Samples;Min_cycle;Max_cycle;Signal;HPM_P1;HPM_P2
2023/03/08 00:00:17;;;;;;;25.45;15.85;;;2.10;99.90;;;;;;5091070;28;20055;-64
2023/03/08 00:02:44;;;;;;;31.48;16.83;;;2.10;99.90;;;;;;5090161;28;20076;-63
2023/03/08 00:05:11;;;;;;;30.05;16.60;;;2.10;99.90;;;;;;5090710;28;20052;-64
2023/03/08 00:07:38;;;;;;;28.67;16.25;;;2.10;99.90;;;;;;5090976;28;20052;-64
2023/03/08 00:10:05;;;;;;;30.35;16.20;;;2.10;99.90;;;;;;5072909;28;20048;-64
2023/03/08 00:12:31;;;;;;;33.63;16.38;;;2.10;99.90;;;;;;5090308;28;20048;-64
2023/03/08 00:14:58;;;;;;;27.13;16.17;;;2.10;99.90;;;;;;5055720;28;20460;-63
2023/03/08 00:17:25;;;;;;;31.63;18.05;;;2.10;99.90;;;;;;5072651;28;20047;-63
2023/03/08 00:19:52;;;;;;;28.48;16.25;;;2.20;99.90;;;;;;5090699;28;20067;-63
2023/03/08 00:22:19;;;;;;;33.97;18.15;;;2.20;99.90;;;;;;5056060;28;20135;-63
2023/03/08 00:24:46;;;;;;;28.55;17.05;;;2.20;99.90;;;;;;5090464;28;20052;-63
2023/03/08 00:27:12;;;;;;;31.60;19.20;;;2.20;99.90;;;;;;5091027;28;20047;-63
2023/03/08 00:29:39;;;;;;;30.60;17.92;;;2.20;99.90;;;;;;5091124;28;20051;-64
2023/03/08 00:32:06;;;;;;;31.15;17.42;;;2.30;99.90;;;;;;5090576;28;20078;-63
2023/03/08 00:34:33;;;;;;;32.30;18.17;;;2.20;99.90;;;;;;5089999;28;20048;-63
2023/03/08 00:37:00;;;;;;;31.90;18.30;;;2.30;99.90;;;;;;5091130;28;20123;-63
2023/03/08 00:39:26;;;;;;;32.55;18.63;;;2.30;99.90;;;;;;5090005;28;20540;-64
2023/03/08 00:41:53;;;;;;;34.22;18.90;;;2.20;99.90;;;;;;5090596;28;20385;-64
2023/03/08 00:44:20;;;;;;;30.65;18.00;;;2.20;99.90;;;;;;5071491;28;20135;-65
2023/03/08 00:46:46;;;;;;;28.15;17.15;;;2.20;99.90;;;;;;5089468;28;20089;-64
2023/03/08 00:49:13;;;;;;;34.83;19.50;;;2.20;99.90;;;;;;5072368;28;20044;-64
2023/03/08 00:51:40;;;;;;;33.55;19.70;;;2.80;99.90;;;;;;5090313;28;20224;-64
2023/03/08 00:54:07;;;;;;;29.88;18.42;;;2.30;99.90;;;;;;5089690;28;20052;-64
2023/03/08 00:56:33;;;;;;;33.25;19.73;;;2.30;99.90;;;;;;5090482;28;20078;-64
2023/03/08 00:59:00;;;;;;;34.17;20.42;;;2.40;99.90;;;;;;5089980;28;20502;-63
2023/03/08 01:01:27;;;;;;;30.38;17.40;;;2.20;99.90;;;;;;5078869;28;20075;-64
2023/03/08 01:03:54;;;;;;;34.35;18.35;;;2.20;99.90;;;;;;5089691;28;20447;-63
2023/03/08 01:06:21;;;;;;;34.15;17.77;;;2.20;99.90;;;;;;5072290;28;20058;-63
2023/03/08 01:08:48;;;;;;;37.33;21.92;;;2.20;99.90;;;;;;5089604;28;20154;-64
2023/03/08 01:11:23;;;;;;;30.52;17.13;;;2.20;99.90;;;;;;5090230;28;20070;-63
2023/03/08 01:13:50;;;;;;;33.67;19.23;;;2.70;99.90;;;;;;5089302;28;20047;-64
2023/03/08 01:16:22;;;;;;;28.92;18.55;;;2.20;99.90;;;;;;5089689;28;20275;-64
2023/03/08 01:18:49;;;;;;;30.33;18.60;;;2.20;99.90;;;;;;5090045;28;20048;-63
2023/03/08 01:21:16;;;;;;;30.38;18.08;;;2.20;99.90;;;;;;5089728;28;20139;-64
2023/03/08 01:23:43;;;;;;;33.67;19.65;;;2.20;99.90;;;;;;5089137;28;20139;-63
2023/03/08 01:26:14;;;;;;;39.97;20.02;;;2.20;99.90;;;;;;5089502;28;20055;-64
2023/03/08 01:28:41;;;;;;;32.38;19.08;;;2.20;99.90;;;;;;5072097;28;20082;-64
2023/03/08 01:31:19;;;;;;;36.42;19.33;;;2.20;99.90;;;;;;5072122;28;20086;-64
2023/03/08 01:33:46;;;;;;;31.40;19.30;;;2.30;99.90;;;;;;5076381;28;20307;-63
2023/03/08 01:36:14;;;;;;;35.03;19.40;;;2.50;99.90;;;;;;5093272;28;20048;-64
2023/03/08 01:38:41;;;;;;;31.70;19.13;;;2.30;99.90;;;;;;5089986;28;20098;-63
2023/03/08 01:41:18;;;;;;;30.67;18.27;;;2.30;99.90;;;;;;5089518;28;20054;-64
2023/03/08 01:43:45;;;;;;;30.70;19.02;;;2.30;99.90;;;;;;5072668;28;20051;-64
2023/03/08 01:46:21;;;;;;;30.77;18.02;;;2.30;99.90;;;;;;5089802;28;20469;-64
2023/03/08 01:48:51;;;;;;;32.50;17.83;;;2.30;99.90;;;;;;5092472;28;20056;-63
2023/03/08 01:51:53;;;;;;;26.73;16.08;;;2.30;99.90;;;;;;5096298;28;20040;-64
2023/03/08 01:54:20;;;;;;;25.88;15.85;;;2.30;99.90;;;;;;5038809;28;20056;-64
2023/03/08 01:56:48;;;;;;;26.55;15.55;;;2.30;99.90;;;;;;5089608;28;20119;-63
2023/03/08 01:59:15;;;;;;;24.00;14.75;;;2.30;99.90;;;;;;4718079;28;9999920;-64
2023/03/08 02:01:41;;;;;;;26.08;16.30;;;2.30;99.90;;;;;;5086706;28;20126;-64
2023/03/08 02:04:08;;;;;;;27.30;15.95;;;2.40;99.90;;;;;;5055165;28;20143;-64
2023/03/08 02:06:35;;;;;;;24.67;14.25;;;2.30;99.90;;;;;;5089456;28;20177;-64
2023/03/08 02:09:03;;;;;;;26.20;16.50;;;2.30;99.90;;;;;;5089532;28;20054;-64
2023/03/08 02:11:33;;;;;;;24.25;15.68;;;2.30;99.90;;;;;;5086455;28;20083;-64
2023/03/08 02:14:00;;;;;;;25.10;15.23;;;2.40;99.90;;;;;;5068797;28;20265;-63
2023/03/08 02:16:27;;;;;;;28.55;15.75;;;2.40;99.90;;;;;;5086991;28;20529;-64
2023/03/08 02:18:56;;;;;;;27.48;15.75;;;2.40;99.90;;;;;;5089310;28;20078;-63
2023/03/08 02:21:23;;;;;;;26.90;16.63;;;2.40;99.90;;;;;;5100370;28;20050;-63
2023/03/08 02:23:50;;;;;;;29.10;15.82;;;2.40;99.90;;;;;;5070476;28;20142;-66
2023/03/08 02:26:17;;;;;;;26.33;15.55;;;2.40;99.90;;;;;;5089066;28;20169;-63
2023/03/08 02:28:44;;;;;;;26.63;15.00;;;2.50;99.90;;;;;;5088649;28;20060;-64
2023/03/08 02:31:11;;;;;;;25.02;15.68;;;2.50;99.90;;;;;;5089698;28;20054;-64
2023/03/08 02:33:37;;;;;;;26.40;15.27;;;2.50;99.90;;;;;;5088477;28;20045;-64
2023/03/08 02:36:06;;;;;;;27.88;16.63;;;2.50;99.90;;;;;;5089266;28;20048;-64
2023/03/08 02:38:33;;;;;;;31.60;16.17;;;2.50;99.90;;;;;;5070597;28;20510;-64
2023/03/08 02:41:00;;;;;;;30.90;17.70;;;2.50;99.90;;;;;;5089154;28;20479;-63
2023/03/08 02:43:27;;;;;;;25.85;16.13;;;2.50;99.90;;;;;;5088240;28;20050;-63
2023/03/08 02:45:53;;;;;;;25.38;15.32;;;2.50;99.90;;;;;;5088669;28;20051;-64
2023/03/08 02:48:20;;;;;;;25.15;16.38;;;2.50;99.90;;;;;;5088689;28;20048;-64
2023/03/08 02:50:47;;;;;;;29.88;16.95;;;2.50;99.90;;;;;;5088774;28;20052;-63
2023/03/08 02:53:14;;;;;;;27.98;16.60;;;2.50;99.90;;;;;;5088045;28;20040;-63
2023/03/08 02:55:41;;;;;;;30.85;17.15;;;2.40;99.90;;;;;;5088566;28;20497;-63
2023/03/08 02:58:08;;;;;;;29.88;17.63;;;2.50;99.90;;;;;;5088482;28;20134;-63
2023/03/08 03:00:35;;;;;;;27.20;15.73;;;2.40;99.90;;;;;;5070881;28;20066;-63
2023/03/08 03:03:02;;;;;;;31.70;16.02;;;2.40;99.90;;;;;;5088752;28;20056;-62
2023/03/08 03:05:29;;;;;;;28.70;16.15;;;2.40;99.90;;;;;;5088426;28;20131;-63
2023/03/08 03:07:57;;;;;;;27.50;15.82;;;2.50;99.90;;;;;;5088572;28;20040;-63
2023/03/08 03:10:24;;;;;;;30.30;17.45;;;2.40;99.90;;;;;;5088886;28;20076;-63
2023/03/08 03:12:51;;;;;;;34.72;16.83;;;2.50;99.90;;;;;;5088700;28;20040;-62
2023/03/08 03:15:17;;;;;;;31.42;17.40;;;2.40;99.90;;;;;;5088216;28;20060;-64
2023/03/08 03:17:44;;;;;;;31.83;17.90;;;2.40;99.90;;;;;;5089013;28;20050;-63
2023/03/08 03:20:11;;;;;;;27.88;15.32;;;2.50;99.90;;;;;;5088578;28;20044;-63
2023/03/08 03:22:38;;;;;;;29.42;18.15;;;2.30;99.90;;;;;;5070685;28;20460;-62
2023/03/08 03:25:05;;;;;;;30.70;15.60;;;2.30;99.90;;;;;;5087468;28;20562;-63
2023/03/08 03:27:32;;;;;;;29.67;15.35;;;2.20;99.90;;;;;;5072607;28;20128;-62
2023/03/08 03:29:59;;;;;;;34.30;18.45;;;2.30;99.90;;;;;;5092084;28;20047;-63
2023/03/08 03:32:25;;;;;;;38.55;17.38;;;2.20;99.90;;;;;;5092649;28;20054;-63
2023/03/08 03:34:52;;;;;;;31.45;17.20;;;2.20;99.90;;;;;;5091798;28;20119;-63
2023/03/08 03:37:19;;;;;;;30.75;16.38;;;2.10;99.90;;;;;;5092658;28;20410;-63
2023/03/08 03:39:46;;;;;;;30.38;16.50;;;2.10;99.90;;;;;;5091891;28;20050;-64
2023/03/08 03:42:13;;;;;;;26.65;15.50;;;2.20;99.90;;;;;;5092339;28;20044;-63
2023/03/08 03:44:39;;;;;;;31.65;17.48;;;2.10;99.90;;;;;;5073315;28;20052;-63
2023/03/08 03:47:06;;;;;;;26.52;15.65;;;2.20;99.90;;;;;;5092444;28;20044;-63
2023/03/08 03:49:33;;;;;;;36.15;18.25;;;2.10;99.90;;;;;;5073857;28;20517;-63
2023/03/08 03:52:00;;;;;;;30.08;15.93;;;2.10;99.90;;;;;;5092437;28;20050;-64
2023/03/08 03:54:26;;;;;;;27.85;16.15;;;2.10;99.90;;;;;;5091051;28;20044;-63
2023/03/08 03:56:56;;;;;;;30.73;16.55;;;2.10;99.90;;;;;;5092642;28;20066;-64
2023/03/08 03:59:24;;;;;;;32.83;17.65;;;2.10;99.90;;;;;;5092210;28;20048;-63
2023/03/08 04:01:52;;;;;;;29.30;16.85;;;2.00;99.90;;;;;;5072711;28;20037;-63
2023/03/08 04:04:19;;;;;;;28.85;15.25;;;2.00;99.90;;;;;;5069405;28;20471;-63
2023/03/08 04:06:46;;;;;;;26.73;14.68;;;1.90;99.90;;;;;;5081488;28;20497;-63
2023/03/08 04:09:14;;;;;;;24.13;14.25;;;1.90;99.90;;;;;;5074177;28;20083;-63
2023/03/08 04:11:42;;;;;;;27.60;14.32;;;1.90;99.90;;;;;;5073716;28;20044;-63
2023/03/08 04:14:09;;;;;;;21.08;12.05;;;1.80;99.90;;;;;;5073806;28;20048;-62
2023/03/08 04:16:36;;;;;;;25.40;12.90;;;1.80;99.90;;;;;;5091852;28;20048;-63
2023/03/08 04:19:09;;;;;;;22.50;12.02;;;1.80;99.90;;;;;;5090410;28;20054;-66
2023/03/08 04:21:36;;;;;;;18.60;10.68;;;1.80;99.90;;;;;;5086365;28;20238;-65
2023/03/08 04:24:03;;;;;;;20.77;10.38;;;1.90;99.90;;;;;;5073723;28;20056;-64
2023/03/08 04:26:29;;;;;;;15.45;8.70;;;1.80;99.90;;;;;;5090980;28;20079;-64
2023/03/08 04:28:56;;;;;;;19.63;10.15;;;1.70;99.90;;;;;;5092453;28;20488;-64
2023/03/08 04:31:28;;;;;;;17.73;10.00;;;1.60;99.90;;;;;;5074563;28;20127;-64
2023/03/08 04:33:55;;;;;;;16.02;9.13;;;1.60;99.90;;;;;;5092303;28;20471;-64
2023/03/08 04:36:21;;;;;;;16.00;9.27;;;1.60;99.90;;;;;;5092289;28;20040;-65
2023/03/08 04:38:48;;;;;;;14.77;7.95;;;1.50;99.90;;;;;;5091980;28;20090;-63
2023/03/08 04:41:15;;;;;;;15.85;8.55;;;1.50;99.90;;;;;;5091638;28;20114;-64
2023/03/08 04:43:50;;;;;;;14.60;7.53;;;1.50;99.90;;;;;;5090945;28;20038;-62
2023/03/08 04:46:18;;;;;;;15.18;8.05;;;1.50;99.90;;;;;;5090567;28;20047;-62
2023/03/08 04:48:44;;;;;;;14.45;8.20;;;1.50;99.90;;;;;;5091375;28;20044;-62
2023/03/08 04:51:12;;;;;;;17.80;7.47;;;1.50;99.90;;;;;;5072953;28;20047;-62
2023/03/08 04:53:40;;;;;;;15.25;7.97;;;1.50;99.90;;;;;;5090617;28;20093;-62
2023/03/08 04:56:07;;;;;;;12.23;8.13;;;1.40;99.90;;;;;;5090773;28;20048;-62
2023/03/08 04:58:34;;;;;;;12.95;7.43;;;1.40;99.90;;;;;;5071639;28;20070;-62
2023/03/08 05:01:18;;;;;;;13.60;8.15;;;1.90;99.90;;;;;;5090668;28;20074;-63
2023/03/08 05:03:45;;;;;;;12.32;7.32;;;1.50;99.90;;;;;;5089557;28;20537;-62
2023/03/08 05:06:13;;;;;;;13.30;7.63;;;1.40;99.90;;;;;;5090827;28;20122;-62
2023/03/08 05:08:39;;;;;;;12.38;6.80;;;1.40;99.90;;;;;;5071987;28;20422;-62
2023/03/08 05:11:06;;;;;;;14.05;7.32;;;1.40;99.90;;;;;;5090558;28;20412;-63
2023/03/08 05:13:35;;;;;;;12.13;7.22;;;1.40;99.90;;;;;;5071933;28;20066;-62
2023/03/08 05:16:05;;;;;;;14.32;8.15;;;1.40;99.90;;;;;;5090638;28;20333;-63
2023/03/08 05:18:32;;;;;;;16.92;8.63;;;1.30;99.90;;;;;;5072338;28;20338;-64
2023/03/08 05:21:00;;;;;;;11.93;7.45;;;1.40;99.90;;;;;;5090386;28;20130;-63
2023/03/08 05:23:27;;;;;;;15.00;7.78;;;1.30;99.90;;;;;;5089986;28;20083;-63
2023/03/08 05:25:55;;;;;;;13.57;7.32;;;1.40;99.90;;;;;;5089913;28;20052;-63
2023/03/08 05:28:23;;;;;;;12.30;6.97;;;1.40;99.90;;;;;;5090113;28;20050;-63
2023/03/08 05:30:58;;;;;;;11.45;7.35;;;1.40;99.90;;;;;;5089905;28;20507;-63
2023/03/08 05:33:25;;;;;;;12.55;7.78;;;1.40;99.90;;;;;;5078786;28;20487;-63
2023/03/08 05:35:53;;;;;;;11.25;6.57;;;1.40;99.90;;;;;;5072112;28;20052;-63
2023/03/08 05:38:23;;;;;;;14.05;6.90;;;1.30;99.90;;;;;;5089504;28;20109;-63
2023/03/08 05:40:50;;;;;;;13.20;6.88;;;1.30;99.90;;;;;;5071483;28;20475;-63
2023/03/08 05:43:17;;;;;;;10.10;6.55;;;1.30;99.90;;;;;;5089554;28;20040;-63
2023/03/08 05:45:54;;;;;;;10.07;6.60;;;1.30;99.90;;;;;;5089844;28;20380;-64
2023/03/08 05:48:20;;;;;;;8.85;6.40;;;1.30;99.90;;;;;;5071437;28;20058;-63
2023/03/08 05:50:47;;;;;;;10.43;6.18;;;1.30;99.90;;;;;;5070932;28;20290;-63
2023/03/08 05:53:14;;;;;;;11.35;6.43;;;1.30;99.90;;;;;;5089425;28;20514;-63
2023/03/08 05:55:40;;;;;;;9.32;6.20;;;1.30;99.90;;;;;;5089423;28;20043;-63
2023/03/08 05:58:07;;;;;;;9.02;5.53;;;1.20;99.90;;;;;;5089840;28;20048;-64
2023/03/08 06:00:34;;;;;;;8.40;5.60;;;1.20;99.90;;;;;;5089250;28;20048;-63
2023/03/08 06:03:03;;;;;;;8.25;5.15;;;1.20;99.90;;;;;;5090012;28;20044;-63
2023/03/08 06:05:31;;;;;;;6.78;4.88;;;1.20;99.90;;;;;;5088615;28;20052;-62
2023/03/08 06:07:58;;;;;;;6.38;4.72;;;1.20;99.90;;;;;;5074190;28;20122;-63
2023/03/08 06:10:25;;;;;;;8.23;5.38;;;1.20;99.90;;;;;;5088465;28;20551;-63
2023/03/08 06:12:51;;;;;;;6.60;4.07;;;1.20;99.90;;;;;;5055291;28;20176;-63
2023/03/08 06:15:18;;;;;;;4.68;3.38;;;1.30;99.90;;;;;;5088948;28;20048;-63
2023/03/08 06:17:45;;;;;;;6.32;4.53;;;1.20;99.90;;;;;;5089135;28;20050;-63
2023/03/08 06:20:12;;;;;;;5.53;3.58;;;1.20;99.90;;;;;;5088731;28;20051;-63
2023/03/08 06:22:38;;;;;;;7.15;4.10;;;1.20;99.90;;;;;;5071271;28;20073;-63
2023/03/08 06:25:06;;;;;;;5.47;3.40;;;1.20;99.90;;;;;;5045808;28;20418;-63
2023/03/08 06:27:32;;;;;;;6.05;3.70;;;1.20;99.90;;;;;;5087461;28;20083;-63
2023/03/08 06:29:59;;;;;;;7.13;3.45;;;1.20;99.90;;;;;;5087431;28;20524;-63
2023/03/08 06:32:26;;;;;;;5.10;3.63;;;1.20;99.90;;;;;;5088922;28;20071;-63
2023/03/08 06:34:53;;;;;;;5.05;3.95;;;1.20;99.90;;;;;;5088574;28;20558;-62
2023/03/08 06:37:19;;;;;;;5.30;3.20;;;1.20;99.90;;;;;;5090093;28;20048;-63
2023/03/08 06:39:46;;;;;;;5.25;3.60;;;1.20;99.90;;;;;;5091945;28;20055;-63
2023/03/08 06:42:13;;;;;;;4.60;3.58;;;1.20;99.90;;;;;;5092215;28;20387;-63
2023/03/08 06:44:39;;;;;;;5.70;3.53;;;1.20;99.90;;;;;;5090055;28;20135;-63
2023/03/08 06:47:06;;;;;;;4.53;3.13;;;1.20;99.90;;;;;;5093337;28;20123;-63
2023/03/08 06:49:33;;;;;;;15.40;4.22;;;1.20;99.90;;;;;;5075364;28;20048;-63
2023/03/08 06:52:00;;;;;;;5.82;3.53;;;1.20;99.90;;;;;;5092961;28;20103;-64
2023/03/08 06:54:26;;;;;;;17.38;4.28;;;1.20;99.90;;;;;;5092478;28;20054;-64
2023/03/08 06:56:53;;;;;;;8.48;4.43;;;1.30;99.90;;;;;;5092816;28;20075;-63
2023/03/08 06:59:20;;;;;;;6.55;3.78;;;1.30;99.90;;;;;;5074148;28;20062;-64
2023/03/08 07:01:47;;;;;;;7.80;3.47;;;1.20;99.90;;;;;;5094221;28;20083;-63
2023/03/08 07:04:13;;;;;;;4.28;3.10;;;1.30;99.90;;;;;;5095551;28;20127;-63
2023/03/08 07:06:40;;;;;;;5.15;3.17;;;1.30;99.90;;;;;;5057460;28;20053;-64
2023/03/08 07:09:07;;;;;;;3.80;2.88;;;1.30;99.90;;;;;;5093143;28;20048;-63
2023/03/08 07:11:34;;;;;;;5.45;3.00;;;1.30;99.90;;;;;;5084937;28;20040;-63
2023/03/08 07:14:01;;;;;;;9.55;3.08;;;1.30;99.90;;;;;;5094143;28;20052;-63
2023/03/08 07:16:27;;;;;;;5.75;2.90;;;1.30;99.90;;;;;;5094047;28;20048;-63
2023/03/08 07:18:55;;;;;;;7.30;3.05;;;1.30;99.90;;;;;;5093306;28;20050;-63
2023/03/08 07:21:23;;;;;;;4.38;2.88;;;1.40;99.90;;;;;;5092856;28;20136;-63
2023/03/08 07:23:51;;;;;;;4.43;3.30;;;1.40;99.90;;;;;;5074461;28;20147;-62
2023/03/08 07:26:18;;;;;;;4.38;2.90;;;1.40;99.90;;;;;;5073873;28;20502;-62
2023/03/08 07:28:48;;;;;;;3.03;2.10;;;1.40;99.90;;;;;;5074078;28;20135;-63
2023/03/08 07:31:16;;;;;;;5.43;2.42;;;1.40;99.90;;;;;;5092838;28;20052;-63
2023/03/08 07:33:42;;;;;;;3.67;2.00;;;1.40;99.90;;;;;;4720355;28;10000587;-64
2023/03/08 07:36:09;;;;;;;2.42;1.92;;;1.50;99.90;;;;;;5072212;28;20052;-63
2023/03/08 07:38:36;;;;;;;2.97;1.98;;;1.40;99.90;;;;;;5089852;28;20078;-64
2023/03/08 07:41:03;;;;;;;2.95;2.00;;;1.50;99.90;;;;;;5071976;28;20051;-63
2023/03/08 07:43:30;;;;;;;5.25;1.80;;;1.50;99.90;;;;;;5071508;28;20044;-64
2023/03/08 07:46:01;;;;;;;3.38;1.90;;;1.50;99.90;;;;;;5089735;28;20052;-63
2023/03/08 07:48:28;;;;;;;2.33;1.50;;;1.50;99.90;;;;;;5054407;28;20052;-64
2023/03/08 07:51:01;;;;;;;5.65;2.95;;;1.50;99.90;;;;;;5079908;28;20627;-63
2023/03/08 07:53:28;;;;;;;2.42;1.73;;;1.60;99.90;;;;;;5060525;28;20075;-62
2023/03/08 07:55:56;;;;;;;2.53;1.92;;;1.50;99.90;;;;;;5060100;28;20466;-62
2023/03/08 07:58:23;;;;;;;3.03;1.85;;;1.50;99.90;;;;;;5069720;28;20044;-64
2023/03/08 08:00:50;;;;;;;4.05;2.22;;;1.50;99.90;;;;;;5066259;28;20246;-63
2023/03/08 08:03:17;;;;;;;3.22;1.75;;;1.60;99.90;;;;;;5085894;28;20047;-64
2023/03/08 08:05:44;;;;;;;3.42;1.73;;;1.60;99.90;;;;;;5088597;28;20486;-63
2023/03/08 08:08:12;;;;;;;5.25;1.88;;;1.60;99.90;;;;;;5087306;28;20044;-63
2023/03/08 08:10:40;;;;;;;4.78;1.98;;;1.60;99.90;;;;;;5069959;28;20177;-64
2023/03/08 08:13:07;;;;;;;2.15;1.67;;;1.60;99.90;;;;;;5087421;28;20422;-63
2023/03/08 08:15:33;;;;;;;3.78;1.95;;;1.60;99.90;;;;;;5088003;28;20054;-64
2023/03/08 08:18:00;;;;;;;2.80;2.42;;;1.70;99.90;;;;;;5087808;28;20044;-63
2023/03/08 08:20:27;;;;;;;2.97;1.80;;;1.80;99.90;;;;;;5087358;28;20142;-64
2023/03/08 08:22:54;;;;;;;2.55;1.92;;;1.70;99.90;;;;;;5066433;28;20549;-64
2023/03/08 08:25:21;;;;;;;8.82;2.80;;;1.60;99.90;;;;;;5087041;28;20052;-63
2023/03/08 08:27:48;;;;;;;2.95;2.60;;;1.70;99.90;;;;;;5087782;28;20078;-63
2023/03/08 08:30:15;;;;;;;6.60;2.88;;;1.70;99.90;;;;;;5069101;28;20040;-63
2023/03/08 08:32:42;;;;;;;4.20;2.17;;;1.80;99.90;;;;;;5069025;28;20139;-62
2023/03/08 08:35:09;;;;;;;4.93;2.72;;;1.80;99.90;;;;;;5086555;28;20580;-63
2023/03/08 08:37:35;;;;;;;3.15;2.58;;;1.80;99.90;;;;;;5086930;28;20048;-63
2023/03/08 08:40:02;;;;;;;3.15;2.72;;;1.80;99.90;;;;;;5086793;28;20160;-64
2023/03/08 08:42:29;;;;;;;5.15;2.55;;;1.80;99.90;;;;;;5087183;28;20135;-63
2023/03/08 08:44:57;;;;;;;28.40;4.60;;;1.90;99.90;;;;;;5068072;28;20096;-63
2023/03/08 08:47:23;;;;;;;8.23;3.58;;;1.90;99.90;;;;;;5069238;28;20079;-63
2023/03/08 08:49:50;;;;;;;4.78;3.30;;;1.90;99.90;;;;;;5086752;28;20054;-64
2023/03/08 08:52:18;;;;;;;4.97;3.33;;;1.90;99.90;;;;;;5087461;28;20546;-64
2023/03/08 08:54:45;;;;;;;4.05;3.03;;;1.90;99.90;;;;;;5068460;28;20139;-64
2023/03/08 08:57:11;;;;;;;5.97;3.13;;;2.00;99.90;;;;;;5086437;28;20048;-63
2023/03/08 08:59:38;;;;;;;3.67;2.88;;;2.00;99.90;;;;;;5068523;28;20050;-63
2023/03/08 09:02:05;;;;;;;3.58;3.28;;;2.10;99.90;;;;;;5086862;28;20067;-63
2023/03/08 09:04:32;;;;;;;3.72;3.08;;;2.00;99.90;;;;;;5068563;28;20052;-63
2023/03/08 09:06:59;;;;;;;4.53;3.08;;;2.00;99.90;;;;;;5086367;28;20056;-63
2023/03/08 09:09:26;;;;;;;6.85;4.07;;;2.00;99.90;;;;;;5086475;28;20422;-63
2023/03/08 09:11:52;;;;;;;6.50;2.80;;;2.10;99.90;;;;;;5086648;28;20468;-64
2023/03/08 09:14:21;;;;;;;9.68;3.13;;;2.00;99.90;;;;;;5086805;28;20415;-64
2023/03/08 09:16:48;;;;;;;4.25;2.75;;;2.10;99.90;;;;;;5086115;28;20054;-64
2023/03/08 09:19:15;;;;;;;6.18;3.00;;;2.10;99.90;;;;;;5069087;28;20136;-63
2023/03/08 09:21:42;;;;;;;3.20;2.75;;;2.10;99.90;;;;;;5085749;28;20090;-64
2023/03/08 09:24:09;;;;;;;2.88;2.33;;;2.10;99.90;;;;;;5086259;28;20101;-63
2023/03/08 09:26:36;;;;;;;19.75;3.45;;;2.70;99.90;;;;;;5067944;28;20131;-63
2023/03/08 09:29:06;;;;;;;12.25;2.85;;;2.10;99.90;;;;;;5086722;28;20159;-63
2023/03/08 09:31:34;;;;;;;3.90;2.13;;;2.20;99.90;;;;;;5068043;28;20126;-63
2023/03/08 09:34:04;;;;;;;3.25;2.17;;;2.20;99.90;;;;;;5082317;28;20059;-64
2023/03/08 09:36:30;;;;;;;2.70;2.20;;;2.20;99.90;;;;;;5068999;28;20091;-64
2023/03/08 09:38:57;;;;;;;14.55;2.78;;;2.20;99.90;;;;;;5086418;28;20113;-64
2023/03/08 09:41:45;;;;;;;8.43;2.15;;;2.20;99.90;;;;;;5086093;28;20071;-63
2023/03/08 09:44:17;;;;;;;2.75;2.22;;;2.20;99.90;;;;;;5059723;28;20570;-65
2023/03/08 09:46:54;;;;;;;8.70;2.25;;;2.30;99.90;;;;;;5086290;28;20044;-65
2023/03/08 09:49:26;;;;;;;4.65;2.00;;;2.30;99.90;;;;;;5086661;28;20135;-65
2023/03/08 09:51:58;;;;;;;3.40;1.88;;;2.30;99.90;;;;;;5068055;28;20047;-66
2023/03/08 09:54:25;;;;;;;5.00;2.25;;;2.30;99.90;;;;;;5051967;28;20048;-64
2023/03/08 09:56:52;;;;;;;8.80;2.90;;;2.30;99.90;;;;;;5051016;28;20044;-64
2023/03/08 09:59:25;;;;;;;6.30;2.35;;;2.30;99.90;;;;;;5087134;28;20047;-65
2023/03/08 10:02:02;;;;;;;2.97;2.20;;;2.40;99.90;;;;;;5067737;28;20396;-65
2023/03/08 10:04:39;;;;;;;3.65;2.28;;;2.40;99.90;;;;;;5069403;28;20461;-65
2023/03/08 10:07:44;;;;;;;9.02;3.22;;;2.40;99.90;;;;;;5086270;28;20056;-66
2023/03/08 10:10:26;;;;;;;28.70;3.92;;;2.40;99.90;;;;;;5078716;28;20076;-65
2023/03/08 10:12:59;;;;;;;4.30;2.60;;;2.40;99.90;;;;;;5051380;28;20159;-64
2023/03/08 10:15:26;;;;;;;6.68;2.75;;;2.40;99.90;;;;;;5086697;28;20044;-65
2023/03/08 10:17:56;;;;;;;5.15;2.13;;;2.50;99.90;;;;;;5051905;28;20047;-65
2023/03/08 10:20:28;;;;;;;3.88;2.55;;;2.40;99.90;;;;;;5067845;28;20060;-64
2023/03/08 10:23:01;;;;;;;4.15;2.63;;;2.40;99.90;;;;;;5067768;28;20075;-65
2023/03/08 10:25:30;;;;;;;3.30;2.17;;;2.40;99.90;;;;;;5085922;28;20055;-65
2023/03/08 10:27:59;;;;;;;9.70;2.88;;;2.40;99.90;;;;;;5068198;28;20048;-64
2023/03/08 10:30:42;;;;;;;7.03;2.70;;;2.40;99.90;;;;;;5075239;28;20044;-64
2023/03/08 10:33:10;;;;;;;8.07;2.40;;;2.40;99.90;;;;;;5066755;28;20087;-64
2023/03/08 10:35:54;;;;;;;5.38;2.15;;;2.40;99.90;;;;;;5085874;28;20056;-65
2023/03/08 10:38:20;;;;;;;5.03;2.65;;;2.40;99.90;;;;;;5085688;28;20101;-64
2023/03/08 10:40:47;;;;;;;2.88;2.00;;;2.40;99.90;;;;;;5068208;28;20050;-64
2023/03/08 10:43:35;;;;;;;6.30;2.53;;;2.40;99.90;;;;;;5067689;28;20286;-64
2023/03/08 10:46:04;;;;;;;4.95;2.35;;;2.60;99.90;;;;;;5067461;28;20419;-65
2023/03/08 10:48:32;;;;;;;5.25;2.42;;;2.40;99.90;;;;;;5085472;28;20071;-64
2023/03/08 10:51:01;;;;;;;9.80;2.92;;;2.50;99.90;;;;;;5085401;28;20514;-64
2023/03/08 10:53:30;;;;;;;3.58;1.80;;;2.50;99.90;;;;;;5085421;28;20123;-63
2023/03/08 10:55:58;;;;;;;6.10;2.22;;;2.50;99.90;;;;;;5085666;28;20443;-64
2023/03/08 10:58:30;;;;;;;4.88;1.98;;;2.60;99.90;;;;;;5066933;28;20482;-64
2023/03/08 11:00:59;;;;;;;9.90;2.13;;;2.60;99.90;;;;;;5067251;28;20048;-64
2023/03/08 11:03:26;;;;;;;7.15;2.20;;;2.60;99.90;;;;;;5085353;28;20128;-65
2023/03/08 11:05:58;;;;;;;3.03;1.88;;;2.60;99.90;;;;;;5084979;28;20085;-65
2023/03/08 11:08:29;;;;;;;12.30;2.42;;;2.60;99.90;;;;;;5084906;28;20044;-65
2023/03/08 11:11:12;;;;;;;11.07;2.40;;;2.60;99.90;;;;;;5068025;28;20052;-65
2023/03/08 11:13:46;;;;;;;3.40;1.98;;;2.70;99.90;;;;;;5085049;28;20131;-64
2023/03/08 11:16:31;;;;;;;5.43;2.35;;;2.70;99.90;;;;;;5084947;28;20059;-65
2023/03/08 11:19:13;;;;;;;2.00;1.70;;;2.70;99.90;;;;;;5085368;28;20044;-65
2023/03/08 11:22:06;;;;;;;5.65;1.95;;;2.70;99.90;;;;;;5068681;28;20040;-65
2023/03/08 11:24:52;;;;;;;3.17;1.75;;;2.70;99.90;;;;;;5067850;28;20056;-65
2023/03/08 11:27:47;;;;;;;6.20;2.30;;;2.70;99.90;;;;;;5085375;28;20052;-63
2023/03/08 11:30:40;;;;;;;;;;;2.80;99.90;;;;;;5085260;28;20490;-64
2023/03/08 11:33:31;;;;;;;6.95;2.17;;;2.80;99.90;;;;;;5079404;28;19924;-64
2023/03/08 11:36:15;;;;;;;4.18;2.15;;;2.80;99.90;;;;;;5084361;28;20063;-64
2023/03/08 11:38:41;;;;;;;5.80;2.72;;;2.80;99.90;;;;;;5066834;28;20055;-62
2023/03/08 11:41:18;;;;;;;5.47;2.72;;;2.80;99.90;;;;;;5050012;28;20468;-63
2023/03/08 11:44:04;;;;;;;4.55;1.83;;;2.80;99.90;;;;;;5065945;28;20139;-63
2023/03/08 11:47:05;;;;;;;7.78;3.08;;;2.80;99.90;;;;;;5066165;28;20321;-63
2023/03/08 11:49:58;;;;;;;11.68;3.10;;;2.80;99.90;;;;;;5067895;28;20470;-64
2023/03/08 11:52:32;;;;;;;6.75;2.30;;;2.80;99.90;;;;;;5072700;28;20111;-63
2023/03/08 11:55:21;;;;;;;11.48;2.90;;;2.80;99.90;;;;;;5069201;28;20109;-63
2023/03/08 11:57:53;;;;;;;5.63;1.77;;;2.80;99.90;;;;;;5087432;28;20475;-64
2023/03/08 12:00:32;;;;;;;8.13;2.47;;;2.90;99.90;;;;;;5070832;28;20121;-64
2023/03/08 12:03:08;;;;;;;5.40;1.95;;;2.90;99.90;;;;;;5069301;28;20401;-63
2023/03/08 12:05:42;;;;;;;8.95;2.97;;;2.80;99.90;;;;;;5055021;28;20070;-63
2023/03/08 12:08:32;;;;;;;3.78;2.00;;;2.80;99.90;;;;;;5064306;28;20055;-63
2023/03/08 12:11:36;;;;;;;10.23;2.30;;;2.80;99.90;;;;;;5071018;28;20656;-63
2023/03/08 12:14:16;;;;;;;7.00;2.00;;;2.80;99.90;;;;;;5052340;28;20417;-64
2023/03/08 12:17:10;;;;;;;3.60;2.35;;;2.80;99.90;;;;;;5088121;28;20050;-65
2023/03/08 12:19:42;;;;;;;8.07;2.38;;;2.80;99.90;;;;;;5073055;28;20056;-63
2023/03/08 12:22:40;;;;;;;4.35;1.77;;;2.80;99.90;;;;;;5087246;28;20048;-64
2023/03/08 12:25:24;;;;;;;4.70;2.17;;;2.70;99.90;;;;;;5072587;28;20059;-64
2023/03/08 12:28:04;;;;;;;5.60;2.05;;;2.70;99.90;;;;;;5069887;28;20055;-63
2023/03/08 12:30:53;;;;;;;10.75;3.08;;;2.70;99.90;;;;;;5054713;28;20044;-66
2023/03/08 12:33:19;;;;;;;4.38;2.13;;;2.70;99.90;;;;;;5068532;28;20670;-64
2023/03/08 12:35:58;;;;;;;4.28;2.13;;;2.80;99.90;;;;;;5069785;28;20062;-63
2023/03/08 12:38:41;;;;;;;3.42;1.77;;;2.80;99.90;;;;;;5069848;28;20044;-64
2023/03/08 12:41:28;;;;;;;3.08;2.10;;;2.80;99.90;;;;;;5065330;28;20155;-63
2023/03/08 12:43:59;;;;;;;5.68;2.22;;;2.80;99.90;;;;;;5085872;28;20054;-64
2023/03/08 12:46:26;;;;;;;4.80;2.13;;;2.80;99.90;;;;;;5087394;28;20811;-63
2023/03/08 12:48:53;;;;;;;2.38;1.75;;;2.80;99.90;;;;;;5052553;28;20044;-63
2023/03/08 12:51:25;;;;;;;5.63;2.05;;;2.80;99.90;;;;;;5069438;28;20055;-63
2023/03/08 12:53:52;;;;;;;2.60;2.13;;;2.80;99.90;;;;;;5048289;28;20479;-65
2023/03/08 12:56:35;;;;;;;6.80;3.10;;;2.80;99.90;;;;;;5084869;28;20048;-64
2023/03/08 12:59:10;;;;;;;36.30;4.23;;;2.80;99.90;;;;;;5048896;28;20570;-64
2023/03/08 13:01:45;;;;;;;;;;;2.80;99.90;;;;;;5086561;28;20066;-64